Time;durP1;ratioP1;P1;durP2;ratioP2;P2;SDS_P1;SDS_P2;PMS_P1;PMS_P2;Temp;Humidity;BMP_temperature;BMP_pressure;BME280_temperature;BME280_humidity;BME280_pressure;Samples;Min_cycle;Max_cycle;Signal;HPM_P1;HPM_P2
2022/06/23 00:01:27;;;;;;;;;;;14.50;99.90;;;;;;5026094;28;20490;-63
2022/06/23 00:03:54;;;;;;;;;;;14.40;99.90;;;;;;5027835;28;20393;-63
2022/06/23 00:06:35;;;;;;;;;;;14.40;99.90;;;;;;5020999;28;19924;-63
2022/06/23 00:09:00;;;;;;;;;;;14.50;99.90;;;;;;5021614;28;19917;-63
2022/06/23 00:11:27;;;;;;;;;;;14.30;99.90;;;;;;5005928;28;19925;-63
2022/06/23 00:14:02;;;;;;;;;;;14.20;99.90;;;;;;5020265;28;19917;-63
2022/06/23 00:16:27;;;;;;;;;;;14.20;99.90;;;;;;5020213;28;19909;-63
2022/06/23 00:18:53;;;;;;;;;;;14.10;99.90;;;;;;5025033;28;19923;-63
2022/06/23 00:21:19;;;;;;;;;;;14.10;99.90;;;;;;5027142;28;19921;-63
2022/06/23 00:23:47;;;;;;;;;;;14.10;99.90;;;;;;5026917;28;19921;-63
2022/06/23 00:26:14;;;;;;;;;;;14.10;99.90;;;;;;5026189;28;19916;-64
2022/06/23 00:28:40;;;;;;;;;;;14.00;99.90;;;;;;5034876;28;19944;-63
2022/06/23 00:31:06;;;;;;;;;;;13.90;99.90;;;;;;5020331;28;19926;-63
2022/06/23 00:33:40;;;;;;;;;;;14.20;99.90;;;;;;5023815;28;19909;-63
2022/06/23 00:36:15;;;;;;;;;;;14.40;99.90;;;;;;5027658;28;19917;-63
2022/06/23 00:38:40;;;;;;;;;;;14.40;99.90;;;;;;4999990;28;19920;-63
2022/06/23 00:41:13;;;;;;;;;;;14.30;99.90;;;;;;5023995;28;19913;-63
2022/06/23 00:43:42;;;;;;;;;;;14.20;99.90;;;;;;5013585;28;19909;-63
2022/06/23 00:46:10;;;;;;;;;;;13.90;99.90;;;;;;5026769;28;19917;-63
2022/06/23 00:48:54;;;;;;;;;;;13.80;99.90;;;;;;5019222;28;20000;-63
2022/06/23 00:51:29;;;;;;;;;;;13.60;99.90;;;;;;5023232;28;20498;-63
2022/06/23 00:54:10;;;;;;;;;;;13.50;99.90;;;;;;5019682;28;19995;-63
2022/06/23 00:56:58;;;;;;;;;;;13.50;99.90;;;;;;5021165;28;19963;-63
2022/06/23 00:59:32;;;;;;;;;;;13.60;99.90;;;;;;5015358;28;19920;-63
2022/06/23 01:01:59;;;;;;;;;;;13.60;99.90;;;;;;5024408;28;19924;-63
2022/06/23 01:04:28;;;;;;;;;;;13.50;99.90;;;;;;5024215;28;20059;-63
2022/06/23 01:06:53;;;;;;;;;;;13.40;99.90;;;;;;5026038;28;19917;-63
2022/06/23 01:09:26;;;;;;;;;;;13.30;99.90;;;;;;5024256;28;20279;-63
2022/06/23 01:12:00;;;;;;;;;;;13.30;99.90;;;;;;5025518;28;19922;-63
2022/06/23 01:14:34;;;;;;;;;;;13.20;99.90;;;;;;5021037;28;19917;-63
2022/06/23 01:17:16;;;;;;;;;;;13.20;99.90;;;;;;5022989;28;19969;-63
2022/06/23 01:20:11;;;;;;;;;;;13.20;99.90;;;;;;5022429;28;19921;-63
2022/06/23 01:22:48;;;;;;;;;;;13.30;99.90;;;;;;5016134;28;20361;-63
2022/06/23 01:25:25;;;;;;;;;;;13.80;99.90;;;;;;5024183;28;19916;-63
2022/06/23 01:28:06;;;;;;;;;;;13.60;99.90;;;;;;5020509;28;20087;-63
2022/06/23 01:30:55;;;;;;;;;;;13.50;99.90;;;;;;5027329;28;20020;-63
2022/06/23 01:33:34;;;;;;;;;;;13.30;99.90;;;;;;5019561;28;20165;-63
2022/06/23 01:36:04;;;;;;;;;;;13.20;99.90;;;;;;5020615;28;20095;-64
2022/06/23 01:38:35;;;;;;;;;;;13.20;99.90;;;;;;5020805;28;19970;-63
2022/06/23 01:41:10;;;;;;;;;;;13.20;99.90;;;;;;5025606;28;20400;-63
2022/06/23 01:43:43;;;;;;;;;;;13.20;99.90;;;;;;5021499;28;19917;-63
2022/06/23 01:46:11;;;;;;;;;;;13.10;99.90;;;;;;5018972;28;19921;-63
2022/06/23 01:48:52;;;;;;;;;;;13.00;99.90;;;;;;5022795;28;20422;-63
2022/06/23 01:51:27;;;;;;;;;;;13.00;99.90;;;;;;5022287;28;19914;-63
2022/06/23 01:53:54;;;;;;;;;;;13.00;99.90;;;;;;5017805;28;20541;-63
2022/06/23 01:56:24;;;;;;;;;;;13.00;99.90;;;;;;5024010;28;20381;-63
2022/06/23 01:58:54;;;;;;;;;;;13.00;99.90;;;;;;5018366;28;19917;-63
2022/06/23 02:01:28;;;;;;;;;;;12.90;99.90;;;;;;5018659;28;19948;-63
2022/06/23 02:04:00;;;;;;;;;;;12.80;99.90;;;;;;5003254;28;19913;-63
2022/06/23 02:06:30;;;;;;;;;;;12.80;99.90;;;;;;5002956;28;19917;-63
2022/06/23 02:09:02;;;;;;;;;;;12.70;99.90;;;;;;5018756;28;19920;-63
2022/06/23 02:11:41;;;;;;;;;;;12.70;99.90;;;;;;5013582;28;20273;-63
2022/06/23 02:14:19;;;;;;;;;;;12.60;99.90;;;;;;5015113;28;19976;-64
2022/06/23 02:16:51;;;;;;;;;;;12.60;99.90;;;;;;5013596;28;19913;-63
2022/06/23 02:19:24;;;;;;;;;;;12.50;99.90;;;;;;5024451;28;19920;-63
2022/06/23 02:21:49;;;;;;;;;;;12.60;99.90;;;;;;5019560;28;20393;-64
2022/06/23 02:24:17;;;;;;;;;;;12.70;99.90;;;;;;5024766;28;20011;-63
2022/06/23 02:26:58;;;;;;;;;;;12.80;99.90;;;;;;5012528;28;19921;-63
2022/06/23 02:29:42;;;;;;;;;;;13.00;99.90;;;;;;5016790;28;19920;-63
2022/06/23 02:32:27;;;;;;;;;;;13.10;99.90;;;;;;5012883;28;20019;-63
2022/06/23 02:34:58;;;;;;;;;;;13.20;99.90;;;;;;4997551;28;20349;-63
2022/06/23 02:37:33;;;;;;;;;;;13.40;99.90;;;;;;5022386;28;19987;-63
2022/06/23 02:39:59;;;;;;;;;;;13.40;99.90;;;;;;5015775;28;19928;-63
2022/06/23 02:42:30;;;;;;;;;;;13.30;99.90;;;;;;5017671;28;19918;-63
2022/06/23 02:45:11;;;;;;;;;;;13.30;99.90;;;;;;5017565;28;20372;-63
2022/06/23 02:47:39;;;;;;;;;;;13.20;99.90;;;;;;5016356;28;19917;-63
2022/06/23 02:50:24;;;;;;;;;;;13.10;99.90;;;;;;5022558;28;19944;-63
2022/06/23 02:53:08;;;;;;;;;;;13.10;99.90;;;;;;5019017;28;20372;-63
2022/06/23 02:55:36;;;;;;;;;;;13.00;99.90;;;;;;5017310;28;19919;-63
2022/06/23 02:58:07;;;;;;;;;;;12.90;99.90;;;;;;5020050;28;20380;-63
2022/06/23 03:00:35;;;;;;;;;;;12.80;99.90;;;;;;5018088;28;19988;-63
2022/06/23 03:03:18;;;;;;;;;;;12.80;99.90;;;;;;5025224;28;20369;-63
2022/06/23 03:05:48;;;;;;;;;;;12.80;99.90;;;;;;5018402;28;19909;-63
2022/06/23 03:08:16;;;;;;;;;;;12.90;99.90;;;;;;5023588;28;20300;-63
2022/06/23 03:10:45;;;;;;;;;;;12.90;99.90;;;;;;5022010;28;20421;-63
2022/06/23 03:13:11;;;;;;;;;;;12.80;99.90;;;;;;5015785;28;19944;-63
2022/06/23 03:15:48;;;;;;;;;;;12.90;99.90;;;;;;5020330;28;19913;-63
2022/06/23 03:18:43;;;;;;;;;;;13.00;99.90;;;;;;5019082;28;19921;-63
2022/06/23 03:21:14;;;;;;;;;;;13.10;99.90;;;;;;5007759;28;20365;-63
2022/06/23 03:23:51;;;;;;;;;;;13.20;99.90;;;;;;5019022;28;19949;-63
2022/06/23 03:26:21;;;;;;;;;;;13.20;99.90;;;;;;5016633;28;19913;-63
2022/06/23 03:28:51;;;;;;;;;;;13.20;99.90;;;;;;5018611;28;20403;-63
2022/06/23 03:31:16;;;;;;;;;;;13.20;99.90;;;;;;5023926;28;20401;-63
2022/06/23 03:33:44;;;;;;;;;;;13.10;99.90;;;;;;5013132;28;19921;-64
2022/06/23 03:36:24;;;;;;;;;;;13.00;99.90;;;;;;5013734;28;20004;-63
2022/06/23 03:41:39;;;;;;;;;;;13.10;99.90;;;;;;5021771;28;19924;-63
2022/06/23 03:44:17;;;;;;;;;;;13.10;99.90;;;;;;5021830;28;20353;-63
2022/06/23 03:46:55;;;;;;;;;;;13.00;99.90;;;;;;5016047;28;20338;-63
2022/06/23 03:49:21;;;;;;;;;;;13.00;99.90;;;;;;5014678;28;19921;-63
2022/06/23 03:51:50;;;;;;;;;;;13.00;99.90;;;;;;5020818;28;19917;-63
2022/06/23 03:54:23;;;;;;;;;;;13.10;99.90;;;;;;5021044;28;19928;-63
2022/06/23 03:56:52;;;;;;;;;;;13.10;99.90;;;;;;5021784;28;20423;-63
2022/06/23 03:59:21;;;;;;;;;;;13.10;99.90;;;;;;5017312;28;19926;-63
2022/06/23 04:02:06;;;;;;;;;;;13.30;99.90;;;;;;5020524;28;19921;-63
2022/06/23 04:04:44;;;;;;;;;;;13.50;99.90;;;;;;5005630;28;19936;-63
2022/06/23 04:07:44;;;;;;;;;;;13.60;99.90;;;;;;5017594;28;19913;-63
2022/06/23 04:10:20;;;;;;;;;;;13.60;99.90;;;;;;4992121;28;19921;-63
2022/06/23 04:12:49;;;;;;;;;;;13.60;99.90;;;;;;5014574;28;19913;-63
2022/06/23 04:15:27;;;;;;;;;;;13.70;99.90;;;;;;5013882;28;19920;-63
2022/06/23 04:17:56;;;;;;;;;;;13.80;99.90;;;;;;4995977;28;19972;-64
2022/06/23 04:20:27;;;;;;;;;;;13.90;99.90;;;;;;5015208;28;20361;-63
2022/06/23 04:22:59;;;;;;;;;;;13.90;99.90;;;;;;5018148;28;20031;-64
2022/06/23 04:25:31;;;;;;;;;;;13.90;99.90;;;;;;5011379;28;20000;-63
2022/06/23 04:27:59;;;;;;;;;;;14.00;99.90;;;;;;5020569;28;19913;-64
2022/06/23 04:30:25;;;;;;;;;;;14.00;99.90;;;;;;5019220;28;19933;-63
2022/06/23 04:32:51;;;;;;;;;;;14.20;99.90;;;;;;5021718;28;19920;-63
2022/06/23 04:35:19;;;;;;;;;;;14.30;99.90;;;;;;5018516;28;19920;-64
2022/06/23 04:37:49;;;;;;;;;;;14.30;99.90;;;;;;5018065;28;20089;-63
2022/06/23 04:40:24;;;;;;;;;;;14.40;99.90;;;;;;5020228;28;19929;-63
2022/06/23 04:42:53;;;;;;;;;;;14.50;99.90;;;;;;5015378;28;19960;-63
2022/06/23 04:45:29;;;;;;;;;;;14.50;99.90;;;;;;5019938;28;19925;-64
2022/06/23 04:47:57;;;;;;;;;;;14.60;99.90;;;;;;5015164;28;19917;-64
2022/06/23 04:50:41;;;;;;;;;;;14.60;99.90;;;;;;5020563;28;19920;-64
2022/06/23 04:53:15;;;;;;;;;;;14.80;99.90;;;;;;5016569;28;19914;-64
2022/06/23 04:55:41;;;;;;;;;;;14.90;99.90;;;;;;5015222;28;19914;-64
2022/06/23 04:58:21;;;;;;;;;;;15.00;99.90;;;;;;5014679;28;20023;-63
2022/06/23 05:00:52;;;;;;;;;;;15.10;99.90;;;;;;5010749;28;19926;-63
2022/06/23 05:03:17;;;;;;;;;;;15.30;99.90;;;;;;5020318;28;19924;-63
2022/06/23 05:05:43;;;;;;;;;;;15.40;99.90;;;;;;5010641;28;20381;-63
2022/06/23 05:08:23;;;;;;;;;;;15.60;99.90;;;;;;5012231;28;19913;-63
2022/06/23 05:10:55;;;;;;;;;;;15.70;99.90;;;;;;5011916;28;19924;-63
2022/06/23 05:13:23;;;;;;;;;;;15.90;99.90;;;;;;5013942;28;19917;-63
2022/06/23 05:15:55;;;;;;;;;;;16.00;99.90;;;;;;5014924;28;19914;-63
2022/06/23 05:18:25;;;;;;;;;;;16.20;99.90;;;;;;5016199;28;19917;-63
2022/06/23 05:21:04;;;;;;;;;;;16.40;99.90;;;;;;5016474;28;19917;-64
2022/06/23 05:23:35;;;;;;;;;;;16.50;99.90;;;;;;5014540;28;19948;-63
2022/06/23 05:26:08;;;;;;;;;;;16.60;99.90;;;;;;5010465;28;19917;-63
2022/06/23 05:28:36;;;;;;;;;;;16.70;99.90;;;;;;5017510;28;19913;-63
2022/06/23 05:31:06;;;;;;;;;;;16.80;99.90;;;;;;5018479;28;19925;-63
2022/06/23 05:33:37;;;;;;;;;;;17.00;99.90;;;;;;5018420;28;19913;-63
2022/06/23 05:36:24;;;;;;;;;;;17.20;99.90;;;;;;5014358;28;19964;-63
2022/06/23 05:38:53;;;;;;;;;;;17.40;99.90;;;;;;5018640;28;20003;-63
2022/06/23 05:41:19;;;;;;;;;;;17.60;99.90;;;;;;5011222;28;20012;-63
2022/06/23 05:43:46;;;;;;;;;;;17.70;99.90;;;;;;5010395;28;20016;-64
2022/06/23 05:46:20;;;;;;;;;;;17.90;99.90;;;;;;5014729;28;19967;-63
2022/06/23 05:48:55;;;;;;;;;;;18.00;99.90;;;;;;5021839;28;19914;-64
2022/06/23 05:51:34;;;;;;;;;;;18.20;99.90;;;;;;5012167;28;19917;-64
2022/06/23 05:54:22;;;;;;;;;;;18.30;99.90;;;;;;5017191;28;20377;-64
2022/06/23 05:56:51;;;;;;;;;;;18.60;99.90;;;;;;5016863;28;19913;-63
2022/06/23 05:59:24;;;;;;;;;;;18.80;99.90;;;;;;5020618;28;19920;-63
2022/06/23 06:02:02;;;;;;;;;;;18.90;99.90;;;;;;5021686;28;19924;-63
2022/06/23 06:04:30;;;;;;;;;;;19.10;99.90;;;;;;5021874;28;19967;-63
2022/06/23 06:06:57;;;;;;;;;;;19.30;99.90;;;;;;5011597;28;19925;-63
2022/06/23 06:09:38;;;;;;;;;;;19.40;99.90;;;;;;5021713;28;20103;-63
2022/06/23 06:12:05;;;;;;;;;;;19.50;99.90;;;;;;5019585;28;20325;-63
2022/06/23 06:14:33;;;;;;;;;;;19.70;99.90;;;;;;5022387;28;19955;-64
2022/06/23 06:16:59;;;;;;;;;;;19.90;99.90;;;;;;5025496;28;20238;-64
2022/06/23 06:19:26;;;;;;;;;;;20.10;99.90;;;;;;5013711;28;19982;-65
2022/06/23 06:21:53;;;;;;;;;;;20.10;99.90;;;;;;5033152;28;19909;-64
2022/06/23 06:24:28;;;;;;;;;;;20.30;99.90;;;;;;5030368;28;19932;-64
2022/06/23 06:26:54;;;;;;;;;;;20.40;99.90;;;;;;5012803;28;19939;-64
2022/06/23 06:29:22;;;;;;;;;;;20.60;99.90;;;;;;5009260;28;20367;-64
2022/06/23 06:31:50;;;;;;;;;;;20.70;99.90;;;;;;5025416;28;19925;-64
2022/06/23 06:34:31;;;;;;;;;;;20.80;99.90;;;;;;5020307;28;19913;-64
2022/06/23 06:36:57;;;;;;;;;;;21.00;99.90;;;;;;5002120;28;19949;-64
2022/06/23 06:39:24;;;;;;;;;;;21.10;99.90;;;;;;5019731;28;19921;-64
2022/06/23 06:41:56;;;;;;;;;;;21.30;99.90;;;;;;5024878;28;19913;-64
2022/06/23 06:44:22;;;;;;;;;;;21.50;99.90;;;;;;5020154;28;19959;-63
2022/06/23 06:46:48;;;;;;;;;;;21.60;99.90;;;;;;5021191;28;20393;-63
2022/06/23 06:49:23;;;;;;;;;;;21.70;99.90;;;;;;5007773;28;20285;-63
2022/06/23 06:51:50;;;;;;;;;;;21.90;99.90;;;;;;5021706;28;20341;-64
2022/06/23 06:54:18;;;;;;;;;;;22.10;99.90;;;;;;5021919;28;20456;-64
2022/06/23 06:56:57;;;;;;;;;;;22.20;99.90;;;;;;5024357;28;19917;-63
2022/06/23 06:59:41;;;;;;;;;;;22.30;99.90;;;;;;5005065;28;20012;-63
2022/06/23 07:02:06;;;;;;;;;;;22.40;99.90;;;;;;5012734;28;19925;-64
2022/06/23 07:04:45;;;;;;;;;;;22.60;99.90;;;;;;5022296;28;20427;-64
2022/06/23 07:07:13;;;;;;;;;;;22.80;99.90;;;;;;5015875;28;19913;-64
2022/06/23 07:09:46;;;;;;;;;;;22.90;99.90;;;;;;5019953;28;20004;-64
2022/06/23 07:12:15;;;;;;;;;;;23.10;99.90;;;;;;5015589;28;19959;-65
2022/06/23 07:15:04;;;;;;;;;;;23.20;99.90;;;;;;5020220;28;19991;-63
2022/06/23 07:17:34;;;;;;;;;;;23.40;99.90;;;;;;5012049;28;20008;-65
2022/06/23 07:20:23;;;;;;;;;;;23.60;99.90;;;;;;5018727;28;19921;-64
2022/06/23 07:22:55;;;;;;;;;;;23.70;99.90;;;;;;4998173;28;20292;-64
2022/06/23 07:25:22;;;;;;;;;;;23.90;99.60;;;;;;5018843;28;20298;-63
2022/06/23 07:27:59;;;;;;;;;;;24.00;99.00;;;;;;5020137;28;20003;-63
2022/06/23 07:30:30;;;;;;;;;;;24.10;99.10;;;;;;4997610;28;20309;-63
2022/06/23 07:32:57;;;;;;;;;;;24.20;99.20;;;;;;4976791;28;19914;-64
2022/06/23 07:35:26;;;;;;;;;;;24.30;99.10;;;;;;4977855;28;19910;-63
2022/06/23 07:38:06;;;;;;;;;;;24.40;98.50;;;;;;4980379;28;20451;-63
2022/06/23 07:40:37;;;;;;;;;;;24.50;98.60;;;;;;4979748;28;20041;-65
2022/06/23 07:43:02;;;;;;;;;;;24.50;98.40;;;;;;4981598;28;19925;-63
2022/06/23 07:45:31;;;;;;;;;;;24.70;98.20;;;;;;4977630;28;19914;-63
2022/06/23 07:47:56;;;;;;;;;;;24.60;97.90;;;;;;4985707;28;19920;-63
2022/06/23 07:50:22;;;;;;;;;;;24.60;98.20;;;;;;4976535;28;19922;-64
2022/06/23 07:52:48;;;;;;;;;;;24.90;98.40;;;;;;4974573;28;20341;-63
2022/06/23 07:55:23;;;;;;;;;;;25.20;99.40;;;;;;4976127;28;20258;-63
2022/06/23 07:57:49;;;;;;;;;;;25.40;97.70;;;;;;4981855;28;20028;-64
2022/06/23 08:00:16;;;;;;;;;;;25.60;98.00;;;;;;4975858;28;20009;-64
2022/06/23 08:03:01;;;;;;;;;;;25.70;97.20;;;;;;4980780;28;19914;-63
2022/06/23 08:05:27;;;;;;;;;;;25.80;97.20;;;;;;4975630;28;20567;-63
2022/06/23 08:07:54;;;;;;;;;;;26.10;96.40;;;;;;4977669;28;19914;-63
2022/06/23 08:10:21;;;;;;;;;;;26.50;96.00;;;;;;4981183;28;19918;-64
2022/06/23 08:12:54;;;;;;;;;;;27.00;94.50;;;;;;4977870;28;19957;-64
2022/06/23 08:18:35;;;;;;;;;;;28.10;92.60;;;;;;4972492;28;19921;-64
2022/06/23 08:21:06;;;;;;;;;;;28.60;92.90;;;;;;4980614;28;19924;-64
2022/06/23 08:23:34;;;;;;;;;;;29.40;91.50;;;;;;4975322;28;19910;-64
2022/06/23 08:26:00;;;;;;;;;;;29.60;91.20;;;;;;4978140;28;19914;-64
2022/06/23 08:28:26;;;;;;;;;;;29.70;90.40;;;;;;4980487;28;19921;-64
2022/06/23 08:30:52;;;;;;;;;;;29.70;89.40;;;;;;4961127;28;19934;-64
2022/06/23 08:33:17;;;;;;;;;;;30.00;88.70;;;;;;4982187;28;19929;-64
2022/06/23 08:35:45;;;;;;;;;;;30.10;89.60;;;;;;4982282;28;19953;-65
2022/06/23 08:38:30;;;;;;;;;;;30.90;88.50;;;;;;4975408;28;19924;-64
2022/06/23 08:40:56;;;;;;;;;;;30.70;86.60;;;;;;4981221;28;20040;-64
2022/06/23 08:43:28;;;;;;;;;;;30.90;85.80;;;;;;4982322;28;20398;-64
2022/06/23 08:46:04;;;;;;;;;;;30.80;84.40;;;;;;4979228;28;20005;-64
2022/06/23 08:48:44;;;;;;;;;;;30.80;85.30;;;;;;4984044;28;19913;-64
2022/06/23 08:51:13;;;;;;;;;;;31.50;83.50;;;;;;4984268;28;19918;-64
2022/06/23 08:53:44;;;;;;;;;;;32.40;80.30;;;;;;4983003;28;20261;-64
2022/06/23 08:56:17;;;;;;;;;;;32.50;80.10;;;;;;4983117;28;19910;-64
2022/06/23 08:58:49;;;;;;;;;;;32.30;79.40;;;;;;4990860;28;19918;-64
2022/06/23 09:01:18;;;;;;;;;;;32.40;78.40;;;;;;4979385;28;19953;-64
2022/06/23 09:03:50;;;;;;;;;;;31.90;79.20;;;;;;4979069;28;19925;-64
2022/06/23 09:06:15;;;;;;;;;;;32.30;77.10;;;;;;4983307;28;20509;-64
2022/06/23 09:08:48;;;;;;;;;;;32.70;76.80;;;;;;4974830;28;19956;-64
2022/06/23 09:11:18;;;;;;;;;;;33.30;76.20;;;;;;4980036;28;19914;-64
2022/06/23 09:13:52;;;;;;;;;;;33.20;75.50;;;;;;4981260;28;19921;-65
2022/06/23 09:16:36;;;;;;;;;;;33.40;75.30;;;;;;4977489;28;19967;-64
2022/06/23 09:19:08;;;;;;;;;;;33.30;73.60;;;;;;4976624;28;19913;-64
2022/06/23 09:21:44;;;;;;;;;;;33.50;74.50;;;;;;4976695;28;19922;-64
2022/06/23 09:24:28;;;;;;;;;;;33.40;75.50;;;;;;4982234;28;19921;-64
2022/06/23 09:27:12;;;;;;;;;;;33.60;74.20;;;;;;4978487;28;20016;-64
2022/06/23 09:30:04;;;;;;;;;;;33.20;74.20;;;;;;4972972;28;20378;-65
2022/06/23 09:32:36;;;;;;;;;;;33.70;72.60;;;;;;4998510;28;19941;-65
2022/06/23 09:35:20;;;;;;;;;;;34.40;70.90;;;;;;5006192;28;19917;-64
2022/06/23 09:37:55;;;;;;;;;;;34.80;69.80;;;;;;4994652;28;19921;-65
2022/06/23 09:40:33;;;;;;;;;;;35.70;69.20;;;;;;4991310;28;20029;-64
2022/06/23 09:43:04;;;;;;;;;;;35.30;67.50;;;;;;4995813;28;19913;-65
2022/06/23 09:45:43;;;;;;;;;;;35.50;68.30;;;;;;4994739;28;19918;-64
2022/06/23 09:48:08;;;;;;;;;;;35.70;65.50;;;;;;4992943;28;20032;-65
2022/06/23 09:50:52;;;;;;;;;;;35.60;67.20;;;;;;4994980;28;19914;-64
2022/06/23 09:53:18;;;;;;;;;;;35.90;66.70;;;;;;4995370;28;20286;-64
2022/06/23 09:55:43;;;;;;;;;;;35.20;66.20;;;;;;4977780;28;20001;-64
2022/06/23 09:58:32;;;;;;;;;;;34.90;66.60;;;;;;4990747;28;20312;-65
2022/06/23 10:01:07;;;;;;;;;;;34.60;66.00;;;;;;4983933;28;20503;-64
2022/06/23 10:03:35;;;;;;;;;;;34.90;66.90;;;;;;4991280;28;20040;-64
2022/06/23 10:06:08;;;;;;;;;;;35.40;64.00;;;;;;4987219;28;20324;-64
2022/06/23 10:08:33;;;;;;;;;;;34.40;65.00;;;;;;4989985;28;19977;-64
2022/06/23 10:10:59;;;;;;;;;;;34.60;64.50;;;;;;4996109;28;19937;-64
2022/06/23 10:13:36;;;;;;;;;;;34.40;63.60;;;;;;4992817;28;21754;-64
2022/06/23 10:16:21;;;;;;;;;;;34.90;64.50;;;;;;4988907;28;20362;-65
2022/06/23 10:18:55;;;;;;;;;;;35.30;64.40;;;;;;4991830;28;19921;-64
2022/06/23 10:21:40;;;;;;;;;;;35.40;63.60;;;;;;5006116;28;19921;-64
2022/06/23 10:24:13;;;;;;;;;;;35.60;62.50;;;;;;5007493;28;19941;-64
2022/06/23 10:26:44;;;;;;;;;;;36.30;60.80;;;;;;4999407;28;20284;-64
2022/06/23 10:29:13;;;;;;;;;;;36.90;61.00;;;;;;4997826;28;19918;-64
2022/06/23 10:31:57;;;;;;;;;;;37.00;59.50;;;;;;4997708;28;20016;-64
2022/06/23 10:34:34;;;;;;;;;;;37.00;60.20;;;;;;4990634;28;19926;-64
2022/06/23 10:37:00;;;;;;;;;;;37.80;60.00;;;;;;4979974;28;20009;-64
2022/06/23 10:39:44;;;;;;;;;;;37.40;58.20;;;;;;4989806;28;19918;-64
2022/06/23 10:42:37;;;;;;;;;;;37.70;58.60;;;;;;4996253;28;20348;-65
2022/06/23 10:45:11;;;;;;;;;;;36.90;60.00;;;;;;4992782;28;19953;-65
2022/06/23 10:48:00;;;;;;;;;;;37.30;58.30;;;;;;4994100;28;19917;-64
2022/06/23 10:50:32;;;;;;;;;;;37.30;56.60;;;;;;4979233;28;20841;-64
2022/06/23 10:53:10;;;;;;;;;;;38.00;56.40;;;;;;4999042;28;19925;-64
2022/06/23 10:55:51;;;;;;;;;;;37.50;56.80;;;;;;4999910;28;20298;-64
2022/06/23 10:58:17;;;;;;;;;;;37.70;56.50;;;;;;4999453;28;19925;-64
2022/06/23 11:00:58;;;;;;;;;;;38.30;55.60;;;;;;4992319;28;19988;-64
2022/06/23 11:03:27;;;;;;;;;;;38.70;56.20;;;;;;4996540;28;20353;-65
2022/06/23 11:05:52;;;;;;;;;;;38.80;56.00;;;;;;4999156;28;19940;-64
2022/06/23 11:08:17;;;;;;;;;;;38.40;54.70;;;;;;4998157;28;19921;-64
2022/06/23 11:10:52;;;;;;;;;;;37.30;56.70;;;;;;4998545;28;20345;-64
2022/06/23 11:13:53;;;;;;;;;;;37.00;57.90;;;;;;4993330;28;19922;-64
2022/06/23 11:16:27;;;;;;;;;;;37.60;56.40;;;;;;4887142;29;20057;-64
2022/06/23 11:19:13;;;;;;;;;;;38.00;55.90;;;;;;4981197;28;20281;-65
2022/06/23 11:21:38;;;;;;;;;;;39.00;55.60;;;;;;4991623;28;19928;-64
2022/06/23 11:24:23;;;;;;;;;;;38.00;57.00;;;;;;4992425;28;19921;-65
2022/06/23 11:27:08;;;;;;;;;;;38.60;55.80;;;;;;4991963;28;21490;-65
2022/06/23 11:29:39;;;;;;;;;;;38.90;55.00;;;;;;4993684;28;20360;-64
2022/06/23 11:32:05;;;;;;;;;;;39.40;54.50;;;;;;4993088;28;19960;-65
2022/06/23 11:34:36;;;;;;;;;;;39.70;55.60;;;;;;4993630;28;19953;-65
2022/06/23 11:37:06;;;;;;;;;;;40.10;54.80;;;;;;4993882;28;19918;-65
2022/06/23 11:39:42;;;;;;;;;;;39.20;55.90;;;;;;4990959;28;19918;-65
2022/06/23 11:42:07;;;;;;;;;;;39.10;55.70;;;;;;4993898;28;19913;-65
2022/06/23 11:44:52;;;;;;;;;;;39.80;54.30;;;;;;4993853;28;19914;-65
2022/06/23 11:47:24;;;;;;;;;;;39.70;54.40;;;;;;4993012;28;20305;-65
2022/06/23 11:50:01;;;;;;;;;;;39.80;54.00;;;;;;4990681;28;19928;-65
2022/06/23 11:52:27;;;;;;;;;;;39.90;53.70;;;;;;4998584;28;20008;-65
2022/06/23 11:55:01;;;;;;;;;;;39.90;52.80;;;;;;4992350;28;20028;-65
2022/06/23 11:57:30;;;;;;;;;;;40.90;53.90;;;;;;4996416;28;20360;-65
2022/06/23 12:00:02;;;;;;;;;;;40.60;53.90;;;;;;4989276;28;19932;-65
2022/06/23 12:02:28;;;;;;;;;;;41.20;52.30;;;;;;4991872;28;19925;-64
2022/06/23 12:04:56;;;;;;;;;;;38.80;52.40;;;;;;4991012;28;19917;-65
2022/06/23 12:07:22;;;;;;;;;;;39.70;53.00;;;;;;4994959;28;19953;-65
2022/06/23 12:09:53;;;;;;;;;;;40.40;54.00;;;;;;4988694;28;20000;-65
2022/06/23 12:12:19;;;;;;;;;;;41.40;53.00;;;;;;4989358;28;20382;-65
2022/06/23 12:14:45;;;;;;;;;;;40.80;51.70;;;;;;4990107;28;20156;-65
2022/06/23 12:17:19;;;;;;;;;;;40.30;51.90;;;;;;4996309;28;20377;-65
2022/06/23 12:19:49;;;;;;;;;;;40.50;51.70;;;;;;4999041;28;19921;-65
2022/06/23 12:22:20;;;;;;;;;;;39.90;51.70;;;;;;4994167;28;19925;-65
2022/06/23 12:24:51;;;;;;;;;;;40.60;51.30;;;;;;4995030;28;19922;-65
2022/06/23 12:27:20;;;;;;;;;;;40.00;52.50;;;;;;4991672;28;20274;-64
2022/06/23 12:30:11;;;;;;;;;;;39.70;51.20;;;;;;4995722;28;19987;-64
2022/06/23 12:32:52;;;;;;;;;;;39.80;52.90;;;;;;4969113;28;20411;-64
2022/06/23 12:35:36;;;;;;;;;;;41.10;50.90;;;;;;4984654;28;19940;-65
2022/06/23 12:38:06;;;;;;;;;;;41.60;51.30;;;;;;4968321;28;19914;-65
2022/06/23 12:40:40;;;;;;;;;;;41.50;49.90;;;;;;4980624;28;19924;-64
2022/06/23 12:43:12;;;;;;;;;;;41.40;49.70;;;;;;4988518;28;20118;-65
2022/06/23 12:45:37;;;;;;;;;;;41.50;49.90;;;;;;4990169;28;20013;-65
2022/06/23 12:48:03;;;;;;;;;;;40.40;52.00;;;;;;4983112;28;20004;-65
2022/06/23 12:50:31;;;;;;;;;;;41.20;50.60;;;;;;4982017;28;19948;-65
2022/06/23 12:52:59;;;;;;;;;;;40.60;50.70;;;;;;4986826;28;20484;-65
2022/06/23 12:55:48;;;;;;;;;;;42.20;49.40;;;;;;4990270;28;19913;-65
2022/06/23 12:58:13;;;;;;;;;;;42.70;49.80;;;;;;4984290;28;19956;-65
2022/06/23 13:00:45;;;;;;;;;;;42.90;49.80;;;;;;4970099;28;21268;-64
2022/06/23 13:03:17;;;;;;;;;;;41.90;48.60;;;;;;4981695;28;20364;-64
2022/06/23 13:05:48;;;;;;;;;;;42.30;48.90;;;;;;4972327;28;19984;-64
2022/06/23 13:08:21;;;;;;;;;;;41.90;48.60;;;;;;4970844;28;19923;-64
2022/06/23 13:10:46;;;;;;;;;;;40.50;49.60;;;;;;4980829;28;20009;-64
2022/06/23 13:13:37;;;;;;;;;;;41.30;49.80;;;;;;4974152;28;19917;-64
2022/06/23 13:16:20;;;;;;;;;;;41.40;49.70;;;;;;4971349;28;19961;-65
2022/06/23 13:18:48;;;;;;;;;;;40.90;50.10;;;;;;4984791;28;19924;-64
2022/06/23 13:21:21;;;;;;;;;;;40.90;50.20;;;;;;4978762;28;19945;-65
2022/06/23 13:23:51;;;;;;;;;;;41.80;50.20;;;;;;4980746;28;20008;-64
2022/06/23 13:26:16;;;;;;;;;;;41.30;49.20;;;;;;4974475;28;19918;-64
2022/06/23 13:28:44;;;;;;;;;;;40.60;48.70;;;;;;4978364;28;19918;-65
2022/06/23 13:31:09;;;;;;;;;;;42.60;48.10;;;;;;4967426;28;19962;-65
2022/06/23 13:33:50;;;;;;;;;;;44.00;47.70;;;;;;4973899;28;19953;-65
2022/06/23 13:36:28;;;;;;;;;;;43.30;46.40;;;;;;4975994;28;19921;-65
2022/06/23 13:39:01;;;;;;;;;;;42.60;47.60;;;;;;4982421;28;20032;-65
2022/06/23 13:41:39;;;;;;;;;;;42.80;48.10;;;;;;4980857;28;19926;-65
2022/06/23 13:44:09;;;;;;;;;;;43.30;47.80;;;;;;4979283;28;19917;-65
2022/06/23 13:46:37;;;;;;;;;;;42.60;47.50;;;;;;4979210;28;20351;-65
2022/06/23 13:49:13;;;;;;;;;;;42.80;46.40;;;;;;4978735;28;19918;-65
2022/06/23 13:51:40;;;;;;;;;;;42.80;46.70;;;;;;4975720;28;19914;-65
2022/06/23 13:54:07;;;;;;;;;;;43.40;45.90;;;;;;4977567;28;20095;-65
2022/06/23 13:57:05;;;;;;;;;;;44.00;45.80;;;;;;4982049;28;19922;-65
2022/06/23 13:59:40;;;;;;;;;;;44.30;46.40;;;;;;4948858;28;19914;-65
2022/06/23 14:02:16;;;;;;;;;;;44.90;46.20;;;;;;4978306;28;19965;-65
2022/06/23 14:04:41;;;;;;;;;;;43.70;47.00;;;;;;4976654;28;20350;-65
2022/06/23 14:07:27;;;;;;;;;;;42.40;47.30;;;;;;4980086;28;20008;-65
2022/06/23 14:09:56;;;;;;;;;;;42.90;48.70;;;;;;4983540;28;19929;-65
2022/06/23 14:12:40;;;;;;;;;;;41.50;47.60;;;;;;4981740;28;19968;-65
2022/06/23 14:15:13;;;;;;;;;;;41.60;47.60;;;;;;4980784;28;19918;-65
2022/06/23 14:17:41;;;;;;;;;;;43.00;47.00;;;;;;4978672;28;19927;-65
2022/06/23 14:20:07;;;;;;;;;;;43.00;46.50;;;;;;4982701;28;19974;-65
2022/06/23 14:22:51;;;;;;;;;;;43.30;46.30;;;;;;4971773;28;20354;-65
2022/06/23 14:25:21;;;;;;;;;;;43.80;45.90;;;;;;4973350;28;20254;-65
2022/06/23 14:27:46;;;;;;;;;;;43.30;46.80;;;;;;4976135;28;19981;-65
2022/06/23 14:30:21;;;;;;;;;;;44.30;46.30;;;;;;4991315;28;19925;-65
2022/06/23 14:32:52;;;;;;;;;;;44.40;45.40;;;;;;5000131;28;19965;-65
2022/06/23 14:35:33;;;;;;;;;;;45.60;45.50;;;;;;4996193;28;20004;-65
2022/06/23 14:37:58;;;;;;;;;;;45.70;44.90;;;;;;4999096;28;19953;-65
2022/06/23 14:40:30;;;;;;;;;;;44.50;45.80;;;;;;5003911;28;20028;-65
2022/06/23 14:42:59;;;;;;;;;;;43.60;45.80;;;;;;4999061;28;19929;-65
2022/06/23 14:45:40;;;;;;;;;;;43.80;45.70;;;;;;4999805;28;19913;-65
2022/06/23 14:48:18;;;;;;;;;;;43.30;45.90;;;;;;4997330;28;20250;-65
2022/06/23 14:51:02;;;;;;;;;;;44.40;46.00;;;;;;4995755;28;19917;-65
2022/06/23 14:53:40;;;;;;;;;;;43.70;45.80;;;;;;5000268;28;19913;-65
2022/06/23 14:56:08;;;;;;;;;;;43.90;45.50;;;;;;5001771;28;20419;-65